createdAt,value
2018-02-10T00:00:25.867Z,2.75
2018-02-10T00:01:25.746Z,2.69
2018-02-10T00:02:25.889Z,2.69
2018-02-10T00:03:25.825Z,2.69
2018-02-10T00:04:25.693Z,2.69
2018-02-10T00:05:25.906Z,2.69
2018-02-10T00:06:25.873Z,2.62
2018-02-10T00:07:25.898Z,2.69
2018-02-10T00:08:25.899Z,2.62
2018-02-10T00:09:25.903Z,2.62
2018-02-10T00:10:25.892Z,2.62
2018-02-10T00:11:25.865Z,2.62
2018-02-10T00:12:25.801Z,2.62
2018-02-10T00:13:25.746Z,2.62
2018-02-10T00:14:25.856Z,2.56
2018-02-10T00:15:25.825Z,2.56
2018-02-10T00:16:25.811Z,2.62
2018-02-10T00:17:25.690Z,2.56
2018-02-10T00:18:25.835Z,2.62
2018-02-10T00:19:25.787Z,2.5
2018-02-10T00:20:25.760Z,2.56
2018-02-10T00:21:25.664Z,2.56
2018-02-10T00:22:25.724Z,2.62
2018-02-10T00:23:25.861Z,2.56
2018-02-10T00:24:25.943Z,2.62
2018-02-10T00:25:25.805Z,2.56
2018-02-10T00:26:25.878Z,2.62
2018-02-10T00:27:25.698Z,2.62
2018-02-10T00:28:25.757Z,2.56
2018-02-10T00:29:25.732Z,2.62
2018-02-10T00:30:25.714Z,2.56
2018-02-10T00:31:25.675Z,2.62
2018-02-10T00:32:25.886Z,2.56
2018-02-10T00:33:25.859Z,2.62
2018-02-10T00:34:25.908Z,2.56
2018-02-10T00:35:25.742Z,2.62
2018-02-10T00:36:25.911Z,2.56
2018-02-10T00:37:25.802Z,2.62
2018-02-10T00:38:25.735Z,2.56
2018-02-10T00:39:25.924Z,2.56
2018-02-10T00:40:25.736Z,2.56
2018-02-10T00:41:25.733Z,2.56
2018-02-10T00:42:25.808Z,2.56
2018-02-10T00:43:25.860Z,2.56
2018-02-10T00:44:25.671Z,2.56
2018-02-10T00:45:25.744Z,2.56
2018-02-10T00:46:25.708Z,2.56
2018-02-10T00:47:25.919Z,2.56
2018-02-10T00:48:25.804Z,2.56
2018-02-10T00:49:25.831Z,2.56
2018-02-10T00:50:25.723Z,2.56
2018-02-10T00:51:25.955Z,2.56
2018-02-10T00:52:25.780Z,2.56
2018-02-10T00:53:25.838Z,2.56
2018-02-10T00:54:25.764Z,2.56
2018-02-10T00:55:25.946Z,2.56
2018-02-10T00:56:25.710Z,2.5
2018-02-10T00:57:25.784Z,2.5
2018-02-10T00:58:25.676Z,2.5
2018-02-10T00:59:25.834Z,2.5
2018-02-10T01:00:25.849Z,2.5
2018-02-10T01:01:25.846Z,2.56
2018-02-10T01:02:25.820Z,2.5
2018-02-10T01:03:25.681Z,2.56
2018-02-10T01:04:25.971Z,2.5
2018-02-10T01:05:25.880Z,2.5
2018-02-10T01:06:25.881Z,2.56
2018-02-10T01:07:25.770Z,2.56
2018-02-10T01:08:25.613Z,2.5
2018-02-10T01:09:25.548Z,2.5
2018-02-10T01:10:25.568Z,2.56
2018-02-10T01:11:25.925Z,2.56
2018-02-10T01:12:25.567Z,2.5
2018-02-10T01:13:25.562Z,2.5
2018-02-10T01:14:25.735Z,2.5
2018-02-10T01:15:25.679Z,2.5
2018-02-10T01:16:25.754Z,2.5
2018-02-10T01:17:25.752Z,2.5
2018-02-10T01:18:25.497Z,2.5
2018-02-10T01:19:25.563Z,2.5
2018-02-10T01:20:25.725Z,2.56
2018-02-10T01:21:25.716Z,2.56
2018-02-10T01:22:25.735Z,2.56
2018-02-10T01:23:25.807Z,2.62
2018-02-10T01:24:25.569Z,2.56
2018-02-10T01:25:25.715Z,2.62
2018-02-10T01:26:25.725Z,2.56
2018-02-10T01:27:25.765Z,2.56
2018-02-10T01:28:25.630Z,2.5
2018-02-10T01:29:25.575Z,2.5
2018-02-10T01:30:25.583Z,2.5
2018-02-10T01:31:25.682Z,2.5
2018-02-10T01:32:25.682Z,2.5
2018-02-10T01:33:25.584Z,2.5
2018-02-10T01:34:25.678Z,2.5
2018-02-10T01:35:25.726Z,2.5
2018-02-10T01:36:25.740Z,2.5
2018-02-10T01:37:25.510Z,2.5
2018-02-10T01:38:25.567Z,2.5
2018-02-10T01:39:26.415Z,2.5
2018-02-10T01:40:26.452Z,2.5
2018-02-10T01:41:26.334Z,2.44
2018-02-10T01:42:26.500Z,2.5
2018-02-10T01:43:26.456Z,2.44
2018-02-10T01:44:26.308Z,2.44
2018-02-10T01:45:26.460Z,2.44
2018-02-10T01:46:26.528Z,2.44
2018-02-10T01:47:26.411Z,2.44
2018-02-10T01:48:26.354Z,2.44
2018-02-10T01:49:26.549Z,2.44
2018-02-10T01:50:26.524Z,2.44
2018-02-10T01:51:26.474Z,2.44
2018-02-10T01:52:26.614Z,2.44
2018-02-10T01:53:26.594Z,2.44
2018-02-10T01:54:26.291Z,2.44
2018-02-10T01:55:26.427Z,2.44
2018-02-10T01:56:26.359Z,2.37
2018-02-10T01:57:26.385Z,2.37
2018-02-10T01:58:26.364Z,2.37
2018-02-10T01:59:26.497Z,2.44
2018-02-10T02:00:26.416Z,2.44
2018-02-10T02:01:26.457Z,2.44
2018-02-10T02:02:26.373Z,2.44
2018-02-10T02:03:26.306Z,2.44
2018-02-10T02:04:26.428Z,2.37
2018-02-10T02:05:26.609Z,2.37
2018-02-10T02:06:26.560Z,2.37
2018-02-10T02:07:26.406Z,2.37
2018-02-10T02:08:26.284Z,2.37
2018-02-10T02:09:26.023Z,2.37
2018-02-10T02:10:26.253Z,2.37
2018-02-10T02:11:26.005Z,2.31
2018-02-10T02:12:26.066Z,2.37
2018-02-10T02:13:26.093Z,2.37
2018-02-10T02:14:25.984Z,2.37
2018-02-10T02:15:26.156Z,2.37
2018-02-10T02:16:26.067Z,2.37
2018-02-10T02:17:26.209Z,2.37
2018-02-10T02:18:26.180Z,2.37
2018-02-10T02:19:26.058Z,2.37
2018-02-10T02:20:26.103Z,2.31
2018-02-10T02:21:26.248Z,2.31
2018-02-10T02:22:26.181Z,2.37
2018-02-10T02:23:26.177Z,2.37
2018-02-10T02:24:26.247Z,2.37
2018-02-10T02:25:26.201Z,2.44
2018-02-10T02:26:26.102Z,2.44
2018-02-10T02:27:26.148Z,2.44
2018-02-10T02:28:26.172Z,2.44
2018-02-10T02:29:26.181Z,2.44
2018-02-10T02:30:26.186Z,2.44
2018-02-10T02:31:26.117Z,2.5
2018-02-10T02:32:26.097Z,2.5
2018-02-10T02:33:26.236Z,2.5
2018-02-10T02:34:26.187Z,2.44
2018-02-10T02:35:26.090Z,2.44
2018-02-10T02:36:26.290Z,2.44
2018-02-10T02:37:26.178Z,2.44
2018-02-10T02:38:26.123Z,2.44
2018-02-10T02:39:26.088Z,2.44
2018-02-10T02:40:26.031Z,2.44
2018-02-10T02:41:26.005Z,2.37
2018-02-10T02:42:25.834Z,2.37
2018-02-10T02:43:26.116Z,2.37
2018-02-10T02:44:26.020Z,2.44
2018-02-10T02:45:26.031Z,2.37
2018-02-10T02:46:25.746Z,2.37
2018-02-10T02:47:25.951Z,2.44
2018-02-10T02:48:25.914Z,2.37
2018-02-10T02:49:25.922Z,2.44
2018-02-10T02:50:26.100Z,2.44
2018-02-10T02:51:26.015Z,2.44
2018-02-10T02:52:25.898Z,2.44
2018-02-10T02:53:25.799Z,2.44
2018-02-10T02:54:26.001Z,2.44
2018-02-10T02:55:25.964Z,2.44
2018-02-10T02:56:25.825Z,2.37
2018-02-10T02:57:26.028Z,2.44
2018-02-10T02:58:25.935Z,2.37
2018-02-10T02:59:25.951Z,2.37
2018-02-10T03:00:25.948Z,2.37
2018-02-10T03:01:26.005Z,2.37
2018-02-10T03:02:25.980Z,2.37
2018-02-10T03:03:26.041Z,2.37
2018-02-10T03:04:26.171Z,2.37
2018-02-10T03:05:25.984Z,2.37
2018-02-10T03:06:25.943Z,2.37
2018-02-10T03:07:25.980Z,2.37
2018-02-10T03:08:25.923Z,2.37
2018-02-10T03:09:25.872Z,2.37
2018-02-10T03:10:25.879Z,2.37
2018-02-10T03:11:25.694Z,2.31
2018-02-10T03:12:25.745Z,2.31
2018-02-10T03:13:25.759Z,2.31
2018-02-10T03:14:25.871Z,2.31
2018-02-10T03:15:25.821Z,2.31
2018-02-10T03:16:25.684Z,2.25
2018-02-10T03:17:25.723Z,2.31
2018-02-10T03:18:25.659Z,2.31
2018-02-10T03:19:25.727Z,2.37
2018-02-10T03:20:25.756Z,2.37
2018-02-10T03:21:25.782Z,2.37
2018-02-10T03:22:25.559Z,2.37
2018-02-10T03:23:25.782Z,2.37
2018-02-10T03:24:25.736Z,2.37
2018-02-10T03:25:25.665Z,2.37
2018-02-10T03:26:25.640Z,2.37
2018-02-10T03:27:25.618Z,2.37
2018-02-10T03:28:25.781Z,2.37
2018-02-10T03:29:25.737Z,2.37
2018-02-10T03:30:25.961Z,2.37
2018-02-10T03:31:25.756Z,2.31
2018-02-10T03:32:25.705Z,2.31
2018-02-10T03:33:25.630Z,2.31
2018-02-10T03:34:25.729Z,2.31
2018-02-10T03:35:25.777Z,2.31
2018-02-10T03:36:25.767Z,2.31
2018-02-10T03:37:25.617Z,2.31
2018-02-10T03:38:25.649Z,2.31
2018-02-10T03:39:25.756Z,2.31
2018-02-10T03:40:25.812Z,2.25
2018-02-10T03:41:25.693Z,2.25
2018-02-10T03:42:25.622Z,2.25
2018-02-10T03:43:25.538Z,2.25
2018-02-10T03:44:25.544Z,2.31
2018-02-10T03:45:25.707Z,2.25
2018-02-10T03:46:25.578Z,2.25
2018-02-10T03:47:25.604Z,2.25
2018-02-10T03:48:25.643Z,2.19
2018-02-10T03:49:25.581Z,2.19
2018-02-10T03:50:25.528Z,2.19
2018-02-10T03:51:25.817Z,2.19
2018-02-10T03:52:25.621Z,2.19
2018-02-10T03:53:25.378Z,2.25
2018-02-10T03:54:25.404Z,2.19
2018-02-10T03:55:25.644Z,2.25
2018-02-10T03:56:25.572Z,2.19
2018-02-10T03:57:25.616Z,2.25
2018-02-10T03:58:25.536Z,2.19
2018-02-10T03:59:25.547Z,2.31
2018-02-10T04:00:25.525Z,2.31
2018-02-10T04:01:25.436Z,2.31
2018-02-10T04:02:25.540Z,2.37
2018-02-10T04:03:25.614Z,2.37
2018-02-10T04:04:25.552Z,2.44
2018-02-10T04:05:25.536Z,2.37
2018-02-10T04:06:25.607Z,2.44
2018-02-10T04:07:25.647Z,2.44
2018-02-10T04:08:25.620Z,2.5
2018-02-10T04:09:25.566Z,2.5
2018-02-10T04:10:25.601Z,2.5
2018-02-10T04:11:25.543Z,2.44
2018-02-10T04:12:25.544Z,2.5
2018-02-10T04:13:26.587Z,2.5
2018-02-10T04:14:26.294Z,2.44
2018-02-10T04:15:26.370Z,2.5
2018-02-10T04:16:26.469Z,2.5
2018-02-10T04:17:26.383Z,2.5
2018-02-10T04:18:26.472Z,2.5
2018-02-10T04:19:26.339Z,2.5
2018-02-10T04:20:26.293Z,2.5
2018-02-10T04:21:26.745Z,2.5
2018-02-10T04:22:26.575Z,2.44
2018-02-10T04:23:26.438Z,2.5
2018-02-10T04:24:26.527Z,2.5
2018-02-10T04:25:26.308Z,2.5
2018-02-10T04:26:26.563Z,2.44
2018-02-10T04:27:26.445Z,2.5
2018-02-10T04:28:26.517Z,2.5
2018-02-10T04:29:26.482Z,2.44
2018-02-10T04:30:26.270Z,2.5
2018-02-10T04:31:26.307Z,2.44
2018-02-10T04:32:26.400Z,2.44
2018-02-10T04:33:26.199Z,2.44
2018-02-10T04:34:26.413Z,2.44
2018-02-10T04:35:26.440Z,2.44
2018-02-10T04:36:26.510Z,2.5
2018-02-10T04:37:26.269Z,2.44
2018-02-10T04:38:26.580Z,2.44
2018-02-10T04:39:26.493Z,2.44
2018-02-10T04:40:26.351Z,2.44
2018-02-10T04:41:26.421Z,2.44
2018-02-10T04:42:26.437Z,2.44
2018-02-10T04:43:26.208Z,2.44
2018-02-10T04:44:26.359Z,2.44
2018-02-10T04:45:26.480Z,2.44
2018-02-10T04:46:26.407Z,2.44
2018-02-10T04:47:26.456Z,2.44
2018-02-10T04:48:26.340Z,2.44
2018-02-10T04:49:26.483Z,2.44
2018-02-10T04:50:26.389Z,2.37
2018-02-10T04:51:26.349Z,2.44
2018-02-10T04:52:26.499Z,2.44
2018-02-10T04:53:26.297Z,2.44
2018-02-10T04:54:26.100Z,2.37
2018-02-10T04:55:26.376Z,2.37
2018-02-10T04:56:26.252Z,2.44
2018-02-10T04:57:26.278Z,2.37
2018-02-10T04:58:26.443Z,2.44
2018-02-10T04:59:26.425Z,2.37
2018-02-10T05:00:26.417Z,2.44
2018-02-10T05:01:26.304Z,2.44
2018-02-10T05:02:26.366Z,2.44
2018-02-10T05:03:26.244Z,2.37
2018-02-10T05:04:26.367Z,2.44
2018-02-10T05:05:26.340Z,2.44
2018-02-10T05:06:26.293Z,2.44
2018-02-10T05:07:26.377Z,2.37
2018-02-10T05:08:26.385Z,2.44
2018-02-10T05:09:26.462Z,2.44
2018-02-10T05:10:26.196Z,2.44
2018-02-10T05:11:26.342Z,2.44
2018-02-10T05:12:26.196Z,2.44
2018-02-10T05:13:26.336Z,2.44
2018-02-10T05:14:26.336Z,2.37
2018-02-10T05:15:26.368Z,2.44
2018-02-10T05:16:26.505Z,2.44
2018-02-10T05:17:26.275Z,2.44
2018-02-10T05:18:26.248Z,2.44
2018-02-10T05:19:26.305Z,2.44
2018-02-10T05:20:26.046Z,2.44
2018-02-10T05:21:26.206Z,2.44
2018-02-10T05:22:26.264Z,2.5
2018-02-10T05:23:26.170Z,2.44
2018-02-10T05:24:26.258Z,2.37
2018-02-10T05:25:26.263Z,2.44
2018-02-10T05:26:26.097Z,2.44
2018-02-10T05:27:26.111Z,2.37
2018-02-10T05:28:26.324Z,2.44
2018-02-10T05:29:26.234Z,2.44
2018-02-10T05:30:26.200Z,2.37
2018-02-10T05:31:26.309Z,2.37
2018-02-10T05:32:26.263Z,2.37
2018-02-10T05:33:26.272Z,2.37
2018-02-10T05:34:26.339Z,2.31
2018-02-10T05:35:26.210Z,2.37
2018-02-10T05:36:26.168Z,2.31
2018-02-10T05:37:26.299Z,2.37
2018-02-10T05:38:26.261Z,2.31
2018-02-10T05:39:26.079Z,2.37
2018-02-10T05:40:26.122Z,2.31
2018-02-10T05:41:26.096Z,2.31
2018-02-10T05:42:26.201Z,2.31
2018-02-10T05:43:26.266Z,2.31
2018-02-10T05:44:26.274Z,2.25
2018-02-10T05:45:25.915Z,2.25
2018-02-10T05:46:25.984Z,2.25
2018-02-10T05:47:26.158Z,2.31
2018-02-10T05:48:26.008Z,2.25
2018-02-10T05:49:26.134Z,2.31
2018-02-10T05:50:25.979Z,2.25
2018-02-10T05:51:26.183Z,2.31
2018-02-10T05:52:26.190Z,2.31
2018-02-10T05:53:25.984Z,2.31
2018-02-10T05:54:26.150Z,2.31
2018-02-10T05:55:26.045Z,2.25
2018-02-10T05:56:26.129Z,2.31
2018-02-10T05:57:26.115Z,2.31
2018-02-10T05:58:26.243Z,2.31
2018-02-10T05:59:26.099Z,2.31
2018-02-10T06:00:25.925Z,2.31
2018-02-10T06:01:25.954Z,2.31
2018-02-10T06:02:26.056Z,2.31
2018-02-10T06:03:26.088Z,2.31
2018-02-10T06:04:26.021Z,2.31
2018-02-10T06:05:26.113Z,2.25
2018-02-10T06:06:26.028Z,2.25
2018-02-10T06:07:26.013Z,2.19
2018-02-10T06:08:25.958Z,2.25
2018-02-10T06:09:26.014Z,2.25
2018-02-10T06:10:25.931Z,2.19
2018-02-10T06:11:25.996Z,2.25
2018-02-10T06:12:26.048Z,2.19
2018-02-10T06:13:26.143Z,2.25
2018-02-10T06:14:26.079Z,2.19
2018-02-10T06:15:26.156Z,2.25
2018-02-10T06:16:26.033Z,2.19
2018-02-10T06:17:25.959Z,2.25
2018-02-10T06:18:26.033Z,2.19
2018-02-10T06:19:26.048Z,2.25
2018-02-10T06:20:25.966Z,2.19
2018-02-10T06:21:26.134Z,2.19
2018-02-10T06:22:25.970Z,2.19
2018-02-10T06:23:26.033Z,2.19
2018-02-10T06:24:26.105Z,2.25
2018-02-10T06:25:26.162Z,2.25
2018-02-10T06:26:26.126Z,2.25
2018-02-10T06:27:26.098Z,2.25
2018-02-10T06:28:25.998Z,2.25
2018-02-10T06:29:25.902Z,2.19
2018-02-10T06:30:25.933Z,2.19
2018-02-10T06:31:25.896Z,2.25
2018-02-10T06:32:25.981Z,2.25
2018-02-10T06:33:25.999Z,2.25
2018-02-10T06:34:25.985Z,2.31
2018-02-10T06:35:25.969Z,2.25
2018-02-10T06:36:25.954Z,2.25
2018-02-10T06:37:25.948Z,2.31
2018-02-10T06:38:26.001Z,2.25
2018-02-10T06:39:26.052Z,2.31
2018-02-10T06:40:26.006Z,2.31
2018-02-10T06:41:26.019Z,2.31
2018-02-10T06:42:26.066Z,2.31
2018-02-10T06:43:26.043Z,2.25
2018-02-10T06:44:26.090Z,2.25
2018-02-10T06:45:25.991Z,2.25
2018-02-10T06:46:25.892Z,2.25
2018-02-10T06:47:25.742Z,2.31
2018-02-10T06:48:25.741Z,2.25
2018-02-10T06:49:25.557Z,2.31
2018-02-10T06:50:25.604Z,2.31
2018-02-10T06:51:25.621Z,2.31
2018-02-10T06:52:25.723Z,2.31
2018-02-10T06:53:25.696Z,2.31
2018-02-10T06:54:25.851Z,2.31
2018-02-10T06:55:25.844Z,2.25
2018-02-10T06:58:28.784Z,2.25
2018-02-10T06:59:25.799Z,2.25
2018-02-10T07:00:25.637Z,2.25
2018-02-10T07:01:25.670Z,2.25
2018-02-10T07:02:25.710Z,2.25
2018-02-10T07:03:25.695Z,2.25
2018-02-10T07:04:25.770Z,2.25
2018-02-10T07:05:25.887Z,2.25
2018-02-10T07:06:25.706Z,2.25
2018-02-10T07:07:25.883Z,2.25
2018-02-10T07:08:25.750Z,2.25
2018-02-10T07:09:25.715Z,2.25
2018-02-10T07:10:25.824Z,2.19
2018-02-10T07:11:25.830Z,2.25
2018-02-10T07:12:25.815Z,2.19
2018-02-10T07:13:26.551Z,2.19
2018-02-10T07:14:25.840Z,2.19
2018-02-10T07:15:25.857Z,2.25
2018-02-10T07:16:25.663Z,2.19
2018-02-10T07:17:25.801Z,2.19
2018-02-10T07:18:25.712Z,2.19
2018-02-10T07:19:25.762Z,2.19
2018-02-10T07:20:25.747Z,2.19
2018-02-10T07:21:25.605Z,2.19
2018-02-10T07:22:25.716Z,2.19
2018-02-10T07:23:25.570Z,2.19
2018-02-10T07:24:25.692Z,2.19
2018-02-10T07:25:25.642Z,2.12
2018-02-10T07:26:25.790Z,2.19
2018-02-10T07:27:25.796Z,2.19
2018-02-10T07:28:25.792Z,2.19
2018-02-10T07:31:26.058Z,2.19
2018-02-10T07:32:25.716Z,2.19
2018-02-10T07:33:25.602Z,2.12
2018-02-10T07:34:25.659Z,2.12
2018-02-10T07:35:25.770Z,2.19
2018-02-10T07:36:25.752Z,2.12
2018-02-10T07:37:25.727Z,2.19
2018-02-10T07:38:25.734Z,2.12
2018-02-10T07:39:25.756Z,2.19
2018-02-10T07:40:25.811Z,2.19
2018-02-10T07:41:25.681Z,2.19
2018-02-10T07:42:25.734Z,2.19
2018-02-10T07:43:25.691Z,2.19
2018-02-10T07:44:25.801Z,2.19
2018-02-10T07:45:25.904Z,2.19
2018-02-10T07:46:25.812Z,2.19
2018-02-10T07:47:25.696Z,2.25
2018-02-10T07:48:25.599Z,2.25
2018-02-10T07:49:25.474Z,2.25
2018-02-10T07:50:25.482Z,2.25
2018-02-10T07:51:25.411Z,2.25
2018-02-10T07:52:25.455Z,2.25
2018-02-10T07:53:25.421Z,2.25
2018-02-10T07:54:25.432Z,2.25
2018-02-10T07:55:25.644Z,2.25
2018-02-10T07:56:25.451Z,2.25
2018-02-10T07:57:25.684Z,2.25
2018-02-10T07:58:25.639Z,2.25
2018-02-10T07:59:25.613Z,2.25
2018-02-10T08:00:25.823Z,2.31
2018-02-10T08:01:29.630Z,2.31
2018-02-10T08:02:25.429Z,2.25
2018-02-10T08:03:25.546Z,2.25
2018-02-10T08:04:25.668Z,2.25
2018-02-10T08:05:25.532Z,2.25
2018-02-10T08:06:25.476Z,2.25
2018-02-10T08:07:25.616Z,2.31
2018-02-10T08:08:25.568Z,2.31
2018-02-10T08:09:25.425Z,2.37
2018-02-10T08:10:25.556Z,2.31
2018-02-10T08:11:25.508Z,2.37
2018-02-10T08:12:25.634Z,2.37
2018-02-10T08:13:25.439Z,2.37
2018-02-10T08:14:25.433Z,2.37
2018-02-10T08:15:25.529Z,2.44
2018-02-10T08:16:25.416Z,2.37
2018-02-10T08:17:25.749Z,2.44
2018-02-10T08:18:25.624Z,2.37
2018-02-10T08:19:25.554Z,2.44
2018-02-10T08:20:26.592Z,2.44
2018-02-10T08:21:26.472Z,2.44
2018-02-10T08:22:26.408Z,2.44
2018-02-10T08:23:26.484Z,2.44
2018-02-10T08:24:26.554Z,2.44
2018-02-10T08:25:26.518Z,2.5
2018-02-10T08:26:26.453Z,2.5
2018-02-10T08:27:26.496Z,2.5
2018-02-10T08:28:26.496Z,2.5
2018-02-10T08:29:26.451Z,2.5
2018-02-10T08:30:26.529Z,2.56
2018-02-10T08:31:26.279Z,2.56
2018-02-10T08:32:26.404Z,2.56
2018-02-10T08:33:26.413Z,2.56
2018-02-10T08:34:26.328Z,2.56
2018-02-10T08:35:26.510Z,2.56
2018-02-10T08:36:26.471Z,2.62
2018-02-10T08:37:26.450Z,2.62
2018-02-10T08:38:26.308Z,2.62
2018-02-10T08:39:26.350Z,2.62
2018-02-10T08:40:26.406Z,2.62
2018-02-10T08:41:26.508Z,2.62
2018-02-10T08:42:26.575Z,2.56
2018-02-10T08:43:26.710Z,2.62
2018-02-10T08:44:26.330Z,2.62
2018-02-10T08:45:26.447Z,2.62
2018-02-10T08:46:26.315Z,2.62
2018-02-10T08:47:26.380Z,2.69
2018-02-10T08:48:26.487Z,2.69
2018-02-10T08:49:26.404Z,2.69
2018-02-10T08:50:26.129Z,2.75
2018-02-10T08:51:26.378Z,2.75
2018-02-10T08:52:26.353Z,2.75
2018-02-10T08:53:26.361Z,2.75
2018-02-10T08:54:26.364Z,2.75
2018-02-10T08:55:26.238Z,2.69
2018-02-10T08:56:26.366Z,2.75
2018-02-10T08:57:26.150Z,2.75
2018-02-10T08:58:39.486Z,2.75
2018-02-10T08:59:26.626Z,2.75
2018-02-10T09:00:26.150Z,2.75
2018-02-10T09:01:26.297Z,2.75
2018-02-10T09:02:26.389Z,2.81
2018-02-10T09:03:26.397Z,2.75
2018-02-10T09:04:26.354Z,2.75
2018-02-10T09:05:26.155Z,2.75
2018-02-10T09:06:26.219Z,2.81
2018-02-10T09:07:26.307Z,2.81
2018-02-10T09:08:26.301Z,2.81
2018-02-10T09:09:26.205Z,2.75
2018-02-10T09:10:26.546Z,2.75
2018-02-10T09:11:26.410Z,2.75
2018-02-10T09:12:26.153Z,2.69
2018-02-10T09:13:26.194Z,2.69
2018-02-10T09:14:26.335Z,2.69
2018-02-10T09:15:26.282Z,2.75
2018-02-10T09:16:26.258Z,2.69
2018-02-10T09:17:26.297Z,2.69
2018-02-10T09:18:26.326Z,2.75
2018-02-10T09:19:26.197Z,2.69
2018-02-10T09:20:26.302Z,2.81
2018-02-10T09:21:26.217Z,2.75
2018-02-10T09:22:26.067Z,2.75
2018-02-10T09:23:26.121Z,2.75
2018-02-10T09:24:25.967Z,2.75
2018-02-10T09:25:26.201Z,2.75
2018-02-10T09:26:26.209Z,2.75
2018-02-10T09:27:26.020Z,2.81
2018-02-10T09:28:26.201Z,2.81
2018-02-10T09:29:26.177Z,2.81
2018-02-10T09:30:26.245Z,2.87
2018-02-10T09:31:26.243Z,2.81
2018-02-10T09:32:26.234Z,2.81
2018-02-10T09:33:26.243Z,2.87
2018-02-10T09:34:26.159Z,2.87
2018-02-10T09:35:25.989Z,2.87
2018-02-10T09:36:26.153Z,2.87
2018-02-10T09:37:26.117Z,2.87
2018-02-10T09:38:26.022Z,2.87
2018-02-10T09:39:26.262Z,2.87
2018-02-10T09:40:26.023Z,2.87
2018-02-10T09:41:25.972Z,2.87
2018-02-10T09:42:26.162Z,2.87
2018-02-10T09:43:26.121Z,2.87
2018-02-10T09:44:26.289Z,2.87
2018-02-10T09:45:26.152Z,2.87
2018-02-10T09:46:26.048Z,2.87
2018-02-10T09:47:26.271Z,2.87
2018-02-10T09:48:26.160Z,2.87
2018-02-10T09:49:26.102Z,2.87
2018-02-10T09:50:26.382Z,2.87
2018-02-10T09:51:26.293Z,2.94
2018-02-10T09:52:26.268Z,2.87
2018-02-10T09:53:26.333Z,2.94
2018-02-10T09:54:26.834Z,2.94
2018-02-10T09:55:26.269Z,2.94
2018-02-10T09:56:26.545Z,2.94
2018-02-10T09:57:26.300Z,2.87
2018-02-10T09:58:26.204Z,2.94
2018-02-10T09:59:26.218Z,2.94
2018-02-10T10:00:26.182Z,2.87
2018-02-10T10:01:26.306Z,2.94
2018-02-10T10:02:26.245Z,2.94
2018-02-10T10:03:26.238Z,2.94
2018-02-10T10:04:26.387Z,2.94
2018-02-10T10:05:26.238Z,2.94
2018-02-10T10:06:26.167Z,2.94
2018-02-10T10:07:26.225Z,2.94
2018-02-10T10:08:26.251Z,2.94
2018-02-10T10:09:26.247Z,2.94
2018-02-10T10:10:26.178Z,2.94
2018-02-10T10:11:26.567Z,3
2018-02-10T10:12:26.317Z,2.94
2018-02-10T10:13:26.310Z,2.94
2018-02-10T10:14:26.353Z,3
2018-02-10T10:15:26.356Z,3
2018-02-10T10:16:26.216Z,3
2018-02-10T10:17:26.317Z,3
2018-02-10T10:18:26.242Z,3.06
2018-02-10T10:19:26.226Z,3
2018-02-10T10:20:26.180Z,3
2018-02-10T10:21:26.336Z,3.06
2018-02-10T10:22:26.126Z,3.06
2018-02-10T10:23:26.763Z,3.06
2018-02-10T10:24:26.272Z,3.06
2018-02-10T10:25:26.301Z,3.06
2018-02-10T10:26:26.284Z,3.06
2018-02-10T10:27:26.610Z,3.06
2018-02-10T10:28:26.269Z,3.06
2018-02-10T10:29:26.267Z,3.06
2018-02-10T10:30:26.345Z,3.12
2018-02-10T10:31:26.167Z,3.12
2018-02-10T10:32:26.464Z,3.06
2018-02-10T10:33:26.629Z,3.12
2018-02-10T10:34:26.078Z,3.12
2018-02-10T10:35:26.160Z,3.12
2018-02-10T10:36:26.168Z,3.12
2018-02-10T10:37:26.362Z,3.12
2018-02-10T10:38:26.440Z,3.12
2018-02-10T10:39:26.260Z,3.12
2018-02-10T10:40:26.352Z,3.12
2018-02-10T10:41:26.407Z,3.12
2018-02-10T10:42:26.397Z,3.12
2018-02-10T10:43:26.289Z,3.12
2018-02-10T10:44:26.329Z,3.12
2018-02-10T10:45:26.657Z,3.12
2018-02-10T10:46:26.333Z,3.12
2018-02-10T10:47:26.142Z,3.12
2018-02-10T10:48:26.100Z,3.12
2018-02-10T10:49:26.261Z,3.12
2018-02-10T10:50:26.121Z,3.19
2018-02-10T10:51:26.123Z,3.12
2018-02-10T10:52:26.212Z,3.19
2018-02-10T10:53:26.031Z,3.19
2018-02-10T10:54:26.192Z,3.19
2018-02-10T10:55:26.787Z,3.19
2018-02-10T10:56:26.138Z,3.19
2018-02-10T10:57:26.175Z,3.19
2018-02-10T10:58:32.133Z,3.19
2018-02-10T10:59:28.152Z,3.19
2018-02-10T11:00:27.360Z,3.19
2018-02-10T11:01:28.852Z,3.19
2018-02-10T11:02:26.149Z,3.19
2018-02-10T11:03:26.101Z,3.19
2018-02-10T11:04:26.219Z,3.19
2018-02-10T11:05:26.272Z,3.19
2018-02-10T11:06:26.597Z,3.19
2018-02-10T11:07:26.924Z,3.19
2018-02-10T11:08:27.292Z,3.19
2018-02-10T11:09:26.333Z,3.19
2018-02-10T11:10:26.067Z,3.19
2018-02-10T11:11:27.669Z,3.19
2018-02-10T11:12:26.216Z,3.25
2018-02-10T11:13:26.792Z,3.19
2018-02-10T11:14:26.139Z,3.19
2018-02-10T11:15:26.218Z,3.25
2018-02-10T11:16:26.292Z,3.25
2018-02-10T11:17:26.321Z,3.25
2018-02-10T11:18:25.999Z,3.25
2018-02-10T11:19:26.094Z,3.25
2018-02-10T11:20:29.223Z,3.25
2018-02-10T11:21:25.989Z,3.25
2018-02-10T11:22:26.777Z,3.25
2018-02-10T11:23:25.664Z,3.25
2018-02-10T11:24:25.506Z,3.25
2018-02-10T11:25:25.660Z,3.25
2018-02-10T11:26:25.746Z,3.25
2018-02-10T11:27:25.692Z,3.25
2018-02-10T11:28:25.749Z,3.25
2018-02-10T11:29:25.747Z,3.31
2018-02-10T11:30:30.917Z,3.31
2018-02-10T11:31:26.355Z,3.31
2018-02-10T11:32:25.846Z,3.31
2018-02-10T11:33:27.477Z,3.37
2018-02-10T11:34:25.731Z,3.37
2018-02-10T11:35:25.902Z,3.37
2018-02-10T11:36:26.027Z,3.44
2018-02-10T11:37:26.073Z,3.37
2018-02-10T11:38:25.865Z,3.37
2018-02-10T11:39:25.633Z,3.44
2018-02-10T11:40:25.597Z,3.44
2018-02-10T11:41:25.951Z,3.44
2018-02-10T11:42:25.576Z,3.44
2018-02-10T11:43:25.830Z,3.44
2018-02-10T11:44:25.664Z,3.5
2018-02-10T11:45:25.555Z,3.44
2018-02-10T11:46:36.307Z,3.44
2018-02-10T11:47:25.787Z,3.44
2018-02-10T11:48:25.612Z,3.44
2018-02-10T11:49:25.734Z,3.44
2018-02-10T11:50:25.805Z,3.5
2018-02-10T11:51:25.881Z,3.44
2018-02-10T11:52:25.738Z,3.44
2018-02-10T11:53:25.670Z,3.44
2018-02-10T11:54:25.617Z,3.44
2018-02-10T11:55:25.651Z,3.44
2018-02-10T11:56:25.908Z,3.44
2018-02-10T11:57:25.936Z,3.44
2018-02-10T11:58:25.717Z,3.44
2018-02-10T11:59:25.888Z,3.44
2018-02-10T12:00:25.428Z,3.44
2018-02-10T12:01:25.550Z,3.44
2018-02-10T12:02:25.699Z,3.44
2018-02-10T12:03:25.600Z,3.44
2018-02-10T12:04:26.237Z,3.5
2018-02-10T12:05:25.501Z,3.44
2018-02-10T12:06:25.587Z,3.44
2018-02-10T12:07:25.675Z,3.44
2018-02-10T12:08:25.599Z,3.44
2018-02-10T12:09:25.438Z,3.44
2018-02-10T12:10:25.524Z,3.44
2018-02-10T12:11:25.730Z,3.44
2018-02-10T12:12:25.643Z,3.44
2018-02-10T12:13:25.710Z,3.44
2018-02-10T12:14:25.667Z,3.44
2018-02-10T12:15:25.921Z,3.5
2018-02-10T12:16:25.671Z,3.44
2018-02-10T12:17:25.596Z,3.44
2018-02-10T12:18:25.604Z,3.44
2018-02-10T12:19:25.621Z,3.5
2018-02-10T12:20:25.721Z,3.44
2018-02-10T12:21:26.787Z,3.44
2018-02-10T12:22:25.758Z,3.37
2018-02-10T12:23:25.614Z,3.37
2018-02-10T12:24:25.633Z,3.37
2018-02-10T12:25:25.574Z,3.44
2018-02-10T12:26:25.650Z,3.44
2018-02-10T12:27:25.539Z,3.37
2018-02-10T12:28:25.571Z,3.44
2018-02-10T12:29:25.849Z,3.37
2018-02-10T12:30:25.624Z,3.44
2018-02-10T12:31:25.464Z,3.44
2018-02-10T12:32:26.349Z,3.5
2018-02-10T12:33:25.708Z,3.5
2018-02-10T12:34:25.556Z,3.5
2018-02-10T12:35:25.486Z,3.5
2018-02-10T12:36:25.671Z,3.5
2018-02-10T12:37:25.475Z,3.5
2018-02-10T12:38:25.561Z,3.44
2018-02-10T12:39:25.510Z,3.5
2018-02-10T12:40:25.588Z,3.5
2018-02-10T12:41:25.523Z,3.5
2018-02-10T12:42:25.655Z,3.5
2018-02-10T12:43:25.512Z,3.56
2018-02-10T12:44:25.590Z,3.5
2018-02-10T12:45:25.621Z,3.5
2018-02-10T12:46:25.743Z,3.5
2018-02-10T12:47:25.921Z,3.5
2018-02-10T12:48:25.573Z,3.5
2018-02-10T12:49:25.479Z,3.56
2018-02-10T12:50:25.531Z,3.56
2018-02-10T12:51:25.754Z,3.5
2018-02-10T12:52:28.153Z,3.5
2018-02-10T12:53:25.600Z,3.5
2018-02-10T12:54:26.147Z,3.56
2018-02-10T12:55:26.257Z,3.5
2018-02-10T12:56:26.033Z,3.56
2018-02-10T12:57:26.106Z,3.56
2018-02-10T12:58:26.007Z,3.56
2018-02-10T12:59:26.206Z,3.56
2018-02-10T13:00:26.259Z,3.56
2018-02-10T13:01:26.128Z,3.56
2018-02-10T13:02:26.022Z,3.62
2018-02-10T13:03:26.189Z,3.62
2018-02-10T13:04:26.021Z,3.62
2018-02-10T13:05:26.189Z,3.62
2018-02-10T13:06:26.112Z,3.56
2018-02-10T13:07:25.911Z,3.62
2018-02-10T13:08:26.283Z,3.62
2018-02-10T13:09:26.017Z,3.62
2018-02-10T13:10:26.063Z,3.56
2018-02-10T13:11:26.125Z,3.62
2018-02-10T13:12:26.280Z,3.56
2018-02-10T13:13:26.237Z,3.62
2018-02-10T13:14:26.013Z,3.56
2018-02-10T13:15:26.421Z,3.56
2018-02-10T13:16:26.018Z,3.62
2018-02-10T13:17:26.150Z,3.56
2018-02-10T13:18:26.219Z,3.62
2018-02-10T13:19:26.015Z,3.56
2018-02-10T13:20:26.213Z,3.56
2018-02-10T13:21:26.365Z,3.56
2018-02-10T13:22:26.039Z,3.56
2018-02-10T13:23:26.169Z,3.56
2018-02-10T13:24:25.992Z,3.56
2018-02-10T13:25:26.162Z,3.56
2018-02-10T13:26:26.017Z,3.56